Time;durP1;ratioP1;P1;durP2;ratioP2;P2;SDS_P1;SDS_P2;PMS_P1;PMS_P2;Temp;Humidity;BMP_temperature;BMP_pressure;BME280_temperature;BME280_humidity;BME280_pressure;Samples;Min_cycle;Max_cycle;Signal;HPM_P1;HPM_P2
2022/10/17 05:00:47;;;;;;;4.50;2.30;;;15.60;97.20;;;;;;1713865;28;20600;-74
2022/10/17 05:01:38;;;;;;;6.28;2.45;;;15.70;97.20;;;;;;1714049;28;20209;-72
2022/10/17 05:02:29;;;;;;;4.03;2.10;;;15.70;97.20;;;;;;1712555;28;20198;-72
2022/10/17 05:03:20;;;;;;;3.92;2.05;;;15.70;97.20;;;;;;1713940;28;20228;-72
2022/10/17 05:04:12;;;;;;;10.63;2.37;;;15.60;97.20;;;;;;1713953;28;20198;-72
2022/10/17 05:05:03;;;;;;;4.72;2.20;;;15.70;97.20;;;;;;1713992;28;20210;-72
2022/10/17 05:05:55;;;;;;;3.42;2.15;;;15.70;97.20;;;;;;1712466;28;20284;-72
2022/10/17 05:06:45;;;;;;;5.10;2.15;;;15.70;97.20;;;;;;1710015;28;20209;-71
2022/10/17 05:07:39;;;;;;;5.33;2.10;;;15.70;97.20;;;;;;1710024;28;20277;-71
2022/10/17 05:08:30;;;;;;;11.27;3.13;;;15.60;97.20;;;;;;1713548;28;20201;-72
2022/10/17 05:09:22;;;;;;;4.72;2.40;;;15.60;97.20;;;;;;1713579;28;20189;-71
2022/10/17 05:10:13;;;;;;;5.63;1.90;;;15.60;97.20;;;;;;1707146;29;20213;-71
2022/10/17 05:11:06;;;;;;;2.50;2.30;;;15.60;97.20;;;;;;1707296;29;20212;-71
2022/10/17 05:11:56;;;;;;;5.90;2.55;;;15.60;97.20;;;;;;1707431;29;20924;-72
2022/10/17 05:12:49;;;;;;;3.73;2.30;;;15.60;97.20;;;;;;1707329;28;20631;-72
2022/10/17 05:13:39;;;;;;;4.93;2.30;;;15.60;97.20;;;;;;1706829;28;20474;-72
2022/10/17 05:14:31;;;;;;;6.60;2.20;;;15.60;97.20;;;;;;1709669;28;20202;-71
2022/10/17 05:15:22;;;;;;;3.50;2.45;;;15.50;97.20;;;;;;1707380;29;20669;-71
2022/10/17 05:16:15;;;;;;;5.73;2.17;;;15.50;97.20;;;;;;1706693;29;20584;-70
2022/10/17 05:17:06;;;;;;;4.30;2.60;;;15.50;97.20;;;;;;1706993;29;20446;-71
2022/10/17 05:17:58;;;;;;;9.53;2.40;;;15.50;97.20;;;;;;1707059;29;20203;-70
2022/10/17 05:18:50;;;;;;;4.95;2.10;;;15.50;97.20;;;;;;1707169;29;20206;-71
2022/10/17 05:19:41;;;;;;;5.68;2.15;;;15.50;97.20;;;;;;1707351;29;20591;-71
2022/10/17 05:20:33;;;;;;;2.53;2.28;;;15.50;97.20;;;;;;1709642;28;20584;-71
2022/10/17 05:21:26;;;;;;;4.65;2.40;;;15.50;97.20;;;;;;1712787;28;20209;-70
2022/10/17 05:22:16;;;;;;;6.50;2.35;;;15.50;97.20;;;;;;1713993;28;20202;-71
2022/10/17 05:23:08;;;;;;;6.57;2.60;;;15.50;97.20;;;;;;1709828;28;20198;-71
2022/10/17 05:23:59;;;;;;;8.25;2.65;;;15.50;97.20;;;;;;1711408;28;20206;-71
2022/10/17 05:24:51;;;;;;;2.90;2.10;;;15.50;97.20;;;;;;1707199;28;20190;-71
2022/10/17 05:25:41;;;;;;;7.32;2.53;;;15.50;97.20;;;;;;1706810;29;20209;-70
2022/10/17 05:26:33;;;;;;;5.10;2.23;;;15.50;97.20;;;;;;1706122;28;20217;-69
2022/10/17 05:27:24;;;;;;;6.32;2.40;;;15.50;97.20;;;;;;1706596;29;20210;-69
2022/10/17 05:28:15;;;;;;;2.87;2.10;;;15.50;97.20;;;;;;1707024;28;20293;-69
2022/10/17 05:29:06;;;;;;;7.07;2.90;;;15.50;97.20;;;;;;1706867;29;20213;-70
2022/10/17 05:29:58;;;;;;;7.27;2.63;;;15.50;97.20;;;;;;1706999;28;20209;-69
2022/10/17 05:30:49;;;;;;;5.63;2.95;;;15.50;97.20;;;;;;1707334;28;20242;-71
2022/10/17 05:31:42;;;;;;;4.83;2.97;;;15.50;97.20;;;;;;1708592;28;20202;-71
2022/10/17 05:32:33;;;;;;;7.55;2.60;;;15.50;97.20;;;;;;1706576;29;20458;-72
2022/10/17 05:33:24;;;;;;;5.03;2.83;;;15.50;97.20;;;;;;1706751;28;20216;-72
2022/10/17 05:34:15;;;;;;;6.38;3.10;;;15.50;97.20;;;;;;1706835;29;20457;-71
2022/10/17 05:35:07;;;;;;;6.30;3.27;;;15.50;97.20;;;;;;1706837;29;20213;-71
2022/10/17 05:35:59;;;;;;;8.85;2.60;;;15.50;97.20;;;;;;1707493;28;20234;-73
2022/10/17 05:36:50;;;;;;;8.35;2.80;;;15.50;97.20;;;;;;1711951;28;20201;-71
2022/10/17 05:37:41;;;;;;;5.63;2.80;;;15.50;97.20;;;;;;1710034;28;20205;-72
2022/10/17 05:38:33;;;;;;;4.97;2.83;;;15.50;97.20;;;;;;1708004;28;20202;-73
2022/10/17 05:39:24;;;;;;;11.63;3.20;;;15.50;97.20;;;;;;1706795;29;20579;-72
2022/10/17 05:40:16;;;;;;;4.53;2.33;;;15.50;97.20;;;;;;1705886;28;20203;-72
2022/10/17 05:41:06;;;;;;;4.45;2.90;;;15.40;97.20;;;;;;1706642;29;20253;-72
2022/10/17 05:41:58;;;;;;;5.80;2.87;;;15.40;97.20;;;;;;1707364;29;20198;-72
2022/10/17 05:42:49;;;;;;;4.97;2.90;;;15.40;97.20;;;;;;1707451;28;20207;-72
2022/10/17 05:43:41;;;;;;;5.43;3.10;;;15.30;97.20;;;;;;1713477;28;20194;-71
2022/10/17 05:44:32;;;;;;;3.55;2.10;;;15.30;97.20;;;;;;1713435;28;20228;-72
2022/10/17 05:45:24;;;;;;;5.95;2.45;;;15.30;97.20;;;;;;1713966;28;20228;-72
2022/10/17 05:46:15;;;;;;;6.97;2.42;;;15.30;97.20;;;;;;1713768;28;20213;-72
2022/10/17 05:47:08;;;;;;;6.73;2.40;;;15.30;97.20;;;;;;1713598;28;20205;-71
2022/10/17 05:47:59;;;;;;;3.55;2.50;;;15.30;97.20;;;;;;1714018;28;20456;-72
2022/10/17 05:48:50;;;;;;;2.60;2.40;;;15.20;97.20;;;;;;1714073;28;20212;-72
2022/10/17 05:49:41;;;;;;;3.85;2.50;;;15.20;97.20;;;;;;1714049;28;20208;-73
2022/10/17 05:50:33;;;;;;;8.10;2.97;;;15.20;97.20;;;;;;1713933;28;20232;-72
2022/10/17 05:51:23;;;;;;;2.72;2.20;;;15.30;97.20;;;;;;1712122;28;20213;-70
2022/10/17 05:52:15;;;;;;;2.87;2.50;;;15.30;97.20;;;;;;1707144;28;20205;-71
2022/10/17 05:53:06;;;;;;;3.30;3.00;;;15.30;97.20;;;;;;1711629;28;20202;-71
2022/10/17 05:53:58;;;;;;;7.07;2.70;;;15.30;97.20;;;;;;1713842;28;20197;-71
2022/10/17 05:54:49;;;;;;;6.72;3.20;;;15.30;97.20;;;;;;1713838;28;20208;-71
2022/10/17 05:55:41;;;;;;;7.57;2.40;;;15.30;97.20;;;;;;1713875;28;20379;-71
2022/10/17 05:56:32;;;;;;;3.67;2.30;;;15.30;97.20;;;;;;1713110;28;20198;-71
2022/10/17 05:57:25;;;;;;;5.72;2.88;;;15.30;97.20;;;;;;1711638;28;20902;-71
2022/10/17 05:58:16;;;;;;;5.05;2.85;;;15.40;97.20;;;;;;1709817;28;20227;-70
2022/10/17 05:59:07;;;;;;;5.83;2.50;;;15.30;97.20;;;;;;1709989;28;20284;-71
2022/10/17 05:59:59;;;;;;;4.15;2.40;;;15.40;97.20;;;;;;1710639;28;20210;-71
2022/10/17 06:00:51;;;;;;;5.00;2.70;;;15.40;97.20;;;;;;1712286;28;20592;-71
2022/10/17 06:01:42;;;;;;;5.60;3.05;;;15.40;97.20;;;;;;1713733;28;20248;-71
2022/10/17 06:02:35;;;;;;;5.37;3.07;;;15.40;97.20;;;;;;1711576;28;20225;-71
2022/10/17 06:03:26;;;;;;;6.13;2.97;;;15.40;97.20;;;;;;1707149;28;20294;-71
2022/10/17 06:04:18;;;;;;;4.22;3.10;;;15.40;97.20;;;;;;1707108;29;20674;-71
2022/10/17 06:05:08;;;;;;;5.05;2.97;;;15.50;97.20;;;;;;1707145;28;20209;-72
2022/10/17 06:06:04;;;;;;;9.13;3.23;;;15.50;97.20;;;;;;1707250;28;20206;-71
2022/10/17 06:06:55;;;;;;;9.43;2.58;;;15.50;97.20;;;;;;1706379;28;20210;-71
2022/10/17 06:07:48;;;;;;;3.50;2.57;;;15.50;97.20;;;;;;1706887;29;20206;-71
2022/10/17 06:08:38;;;;;;;4.32;2.10;;;15.50;97.20;;;;;;1707089;29;20569;-71
2022/10/17 06:09:30;;;;;;;4.23;2.40;;;15.50;97.20;;;;;;1706992;29;20586;-71
2022/10/17 06:10:21;;;;;;;2.80;2.45;;;15.50;97.20;;;;;;1707118;29;20840;-71
2022/10/17 06:11:13;;;;;;;5.10;2.53;;;15.50;97.20;;;;;;1706897;29;20570;-71
2022/10/17 06:12:04;;;;;;;4.47;2.63;;;15.60;97.20;;;;;;1706922;28;20482;-71
2022/10/17 06:12:56;;;;;;;4.27;2.27;;;15.60;97.20;;;;;;1707037;29;20208;-72
2022/10/17 06:13:47;;;;;;;3.50;2.42;;;15.60;97.20;;;;;;1706547;28;20272;-71
2022/10/17 06:14:39;;;;;;;3.43;2.10;;;15.60;97.20;;;;;;1706420;29;20194;-71
2022/10/17 06:15:29;;;;;;;7.43;2.90;;;15.60;97.20;;;;;;1706336;28;20665;-71
2022/10/17 06:16:21;;;;;;;4.50;2.23;;;15.60;97.20;;;;;;1705557;28;20726;-71
2022/10/17 06:17:12;;;;;;;5.32;2.20;;;15.60;97.20;;;;;;1705720;29;20855;-71
2022/10/17 06:18:05;;;;;;;3.67;2.93;;;15.60;97.20;;;;;;1706686;29;20683;-71
2022/10/17 06:18:56;;;;;;;5.22;2.45;;;15.60;97.20;;;;;;1706539;29;20210;-72
2022/10/17 06:19:48;;;;;;;4.90;2.57;;;15.70;97.20;;;;;;1706622;28;20285;-72
2022/10/17 06:20:39;;;;;;;5.05;3.10;;;15.70;97.20;;;;;;1707142;29;20226;-71
2022/10/17 06:21:33;;;;;;;2.93;2.17;;;15.70;97.20;;;;;;1706921;29;20227;-71
2022/10/17 06:22:24;;;;;;;3.30;2.95;;;15.70;97.20;;;;;;1707971;28;20265;-72
2022/10/17 06:23:16;;;;;;;4.13;2.40;;;15.70;97.20;;;;;;1706745;29;20206;-71
2022/10/17 06:24:06;;;;;;;3.78;3.40;;;15.70;97.20;;;;;;1705820;28;20212;-71
2022/10/17 06:24:58;;;;;;;2.60;2.40;;;15.70;97.20;;;;;;1705861;29;20205;-71
2022/10/17 06:25:49;;;;;;;6.05;2.63;;;15.70;97.20;;;;;;1706492;28;20214;-71
2022/10/17 06:26:41;;;;;;;4.37;2.67;;;15.70;97.20;;;;;;1706257;29;20213;-72
2022/10/17 06:27:32;;;;;;;2.85;2.65;;;15.70;97.20;;;;;;1706621;28;20213;-71
2022/10/17 06:28:23;;;;;;;4.40;3.03;;;15.70;97.20;;;;;;1706629;29;20205;-71
2022/10/17 06:29:14;;;;;;;5.32;2.60;;;15.80;97.20;;;;;;1706510;28;20217;-71
2022/10/17 06:30:07;;;;;;;5.70;3.05;;;15.80;97.20;;;;;;1706523;28;20247;-72
2022/10/17 06:30:58;;;;;;;4.28;3.20;;;15.80;97.20;;;;;;1706321;28;20242;-72
2022/10/17 06:31:50;;;;;;;11.63;3.50;;;15.80;97.20;;;;;;1706522;29;20257;-71
2022/10/17 06:32:41;;;;;;;6.53;3.50;;;15.80;97.20;;;;;;1706547;29;20210;-70
2022/10/17 06:33:34;;;;;;;3.33;3.03;;;15.80;97.20;;;;;;1706493;29;20278;-71
2022/10/17 06:34:25;;;;;;;5.97;3.53;;;15.80;97.20;;;;;;1706481;28;20237;-72
2022/10/17 06:35:16;;;;;;;5.63;3.70;;;15.80;97.20;;;;;;1706553;29;20225;-71
2022/10/17 06:36:11;;;;;;;4.03;3.50;;;15.80;97.20;;;;;;1706595;29;20588;-71
2022/10/17 06:37:03;;;;;;;7.68;3.58;;;15.80;97.20;;;;;;1706841;28;20656;-72
2022/10/17 06:37:53;;;;;;;4.47;3.47;;;15.90;97.20;;;;;;1706728;28;20203;-71
2022/10/17 06:38:45;;;;;;;5.43;3.37;;;15.90;97.20;;;;;;1709530;28;20193;-72
2022/10/17 06:39:36;;;;;;;3.05;2.78;;;15.90;97.20;;;;;;1713794;28;20202;-71
2022/10/17 06:40:29;;;;;;;6.75;2.92;;;15.90;97.20;;;;;;1713745;28;20289;-71
2022/10/17 06:41:19;;;;;;;8.38;2.83;;;15.90;97.20;;;;;;1713828;28;20206;-72
2022/10/17 06:42:11;;;;;;;4.47;2.83;;;16.00;97.20;;;;;;1713816;28;20293;-71
2022/10/17 06:43:02;;;;;;;3.58;2.50;;;16.00;97.20;;;;;;1713839;28;20202;-72
2022/10/17 06:43:53;;;;;;;2.93;2.47;;;16.00;97.20;;;;;;1714071;28;20202;-72
2022/10/17 06:44:44;;;;;;;4.18;2.72;;;16.00;97.20;;;;;;1713829;28;20211;-72
2022/10/17 06:45:38;;;;;;;4.43;2.80;;;16.00;97.20;;;;;;1713798;28;20220;-71
2022/10/17 06:46:29;;;;;;;3.65;2.38;;;16.00;97.20;;;;;;1713557;28;20206;-71
2022/10/17 06:47:21;;;;;;;7.10;2.93;;;16.00;97.20;;;;;;1713405;28;20197;-72
2022/10/17 06:48:12;;;;;;;4.13;3.00;;;16.00;97.20;;;;;;1713914;28;20904;-72
2022/10/17 06:49:05;;;;;;;4.53;2.90;;;16.00;97.20;;;;;;1713896;28;20222;-72
2022/10/17 06:49:56;;;;;;;5.15;3.35;;;16.00;97.20;;;;;;1713963;28;20208;-72
2022/10/17 06:50:47;;;;;;;5.10;2.90;;;16.10;97.20;;;;;;1713617;28;20218;-72
2022/10/17 06:51:38;;;;;;;4.50;3.10;;;16.10;97.20;;;;;;1713825;28;20206;-71
2022/10/17 06:52:30;;;;;;;3.60;2.77;;;16.10;97.20;;;;;;1715018;28;20756;-72
2022/10/17 06:53:21;;;;;;;5.53;2.97;;;16.10;97.20;;;;;;1715118;28;20229;-71
2022/10/17 06:54:12;;;;;;;7.00;3.13;;;16.10;97.20;;;;;;1714990;28;20206;-71
2022/10/17 06:55:04;;;;;;;6.80;2.88;;;16.10;97.20;;;;;;1715150;28;20235;-71
2022/10/17 06:56:00;;;;;;;9.65;3.50;;;16.10;97.20;;;;;;1708898;28;20199;-71
2022/10/17 06:56:50;;;;;;;3.45;2.80;;;16.10;97.20;;;;;;1708002;28;20226;-72
2022/10/17 06:57:42;;;;;;;3.70;2.87;;;16.10;97.20;;;;;;1708405;28;20282;-72
2022/10/17 06:58:35;;;;;;;7.97;2.83;;;16.10;97.20;;;;;;1708264;29;20692;-71
2022/10/17 06:59:27;;;;;;;4.32;2.65;;;16.10;97.20;;;;;;1708322;29;20210;-71
2022/10/17 07:00:18;;;;;;;4.18;2.40;;;16.10;97.20;;;;;;1708253;29;20213;-71
2022/10/17 07:01:13;;;;;;;4.63;2.60;;;16.20;97.20;;;;;;1708345;29;20206;-72
2022/10/17 07:02:04;;;;;;;5.47;2.58;;;16.20;97.20;;;;;;1708432;29;20442;-71
2022/10/17 07:02:56;;;;;;;6.93;2.60;;;16.20;97.20;;;;;;1708275;28;20264;-71
2022/10/17 07:03:47;;;;;;;2.97;2.38;;;16.20;97.20;;;;;;1708318;29;20202;-71
2022/10/17 07:04:40;;;;;;;3.08;2.60;;;16.20;97.20;;;;;;1708270;29;20237;-71
2022/10/17 07:05:31;;;;;;;3.65;2.70;;;16.30;97.20;;;;;;1708273;29;20202;-71
2022/10/17 07:06:24;;;;;;;5.47;3.03;;;16.30;97.20;;;;;;1708091;29;20199;-71
2022/10/17 07:07:14;;;;;;;2.53;2.30;;;16.30;97.20;;;;;;1708284;28;20581;-72
2022/10/17 07:08:07;;;;;;;6.20;2.53;;;16.40;97.20;;;;;;1708281;29;20625;-71
2022/10/17 07:08:59;;;;;;;5.47;3.08;;;16.40;97.20;;;;;;1708241;28;20462;-71
2022/10/17 07:09:51;;;;;;;4.03;2.80;;;16.40;97.20;;;;;;1708275;29;20206;-72
2022/10/17 07:10:42;;;;;;;7.13;2.45;;;16.50;97.20;;;;;;1708199;29;20230;-72
2022/10/17 07:11:34;;;;;;;4.07;2.67;;;16.50;97.20;;;;;;1708227;28;20198;-72
2022/10/17 07:12:25;;;;;;;4.47;2.70;;;16.50;97.20;;;;;;1709319;28;20265;-71
2022/10/17 07:13:17;;;;;;;4.97;3.07;;;16.50;97.20;;;;;;1708308;29;20210;-71
2022/10/17 07:14:09;;;;;;;4.55;2.85;;;16.50;97.20;;;;;;1708224;28;20217;-71
2022/10/17 07:15:00;;;;;;;4.25;2.30;;;16.60;97.20;;;;;;1708185;29;20206;-71
2022/10/17 07:15:51;;;;;;;3.77;2.50;;;16.60;97.20;;;;;;1708241;29;20206;-71
2022/10/17 07:16:42;;;;;;;6.45;2.55;;;16.60;97.20;;;;;;1707881;29;20202;-71
2022/10/17 07:17:34;;;;;;;2.93;2.20;;;16.60;97.20;;;;;;1708109;29;20202;-71
2022/10/17 07:18:25;;;;;;;3.83;2.20;;;16.70;97.20;;;;;;1708319;29;20689;-72
2022/10/17 07:19:16;;;;;;;3.20;2.53;;;16.70;97.20;;;;;;1708222;29;20664;-71
2022/10/17 07:20:09;;;;;;;6.75;2.78;;;16.70;97.20;;;;;;1708220;29;20589;-71
2022/10/17 07:21:02;;;;;;;3.85;2.03;;;16.80;97.20;;;;;;1708167;28;20313;-71
2022/10/17 07:21:53;;;;;;;4.20;2.30;;;16.80;97.20;;;;;;1708111;29;20645;-71
2022/10/17 07:22:45;;;;;;;5.50;2.57;;;16.90;97.20;;;;;;1708196;29;20657;-72
2022/10/17 07:23:37;;;;;;;5.68;2.40;;;16.90;97.20;;;;;;1708159;29;20202;-71
2022/10/17 07:24:29;;;;;;;2.78;2.58;;;17.00;97.20;;;;;;1708188;29;20825;-72
2022/10/17 07:25:19;;;;;;;3.45;2.22;;;17.00;97.20;;;;;;1708138;29;20207;-71
2022/10/17 07:26:13;;;;;;;3.53;2.57;;;17.10;97.20;;;;;;1707865;29;20228;-71
2022/10/17 07:27:04;;;;;;;3.80;2.42;;;17.10;97.20;;;;;;1708176;29;20207;-71
2022/10/17 07:27:56;;;;;;;3.10;2.27;;;17.10;97.20;;;;;;1708133;29;20681;-71
2022/10/17 07:28:52;;;;;;;2.78;2.45;;;17.20;97.20;;;;;;1708084;29;20209;-71
2022/10/17 07:29:43;;;;;;;6.63;2.28;;;17.20;97.20;;;;;;1709193;28;20589;-71
2022/10/17 07:30:34;;;;;;;2.63;2.40;;;17.20;97.20;;;;;;1707940;29;20230;-71
2022/10/17 07:31:26;;;;;;;5.27;2.80;;;17.30;97.20;;;;;;1708244;29;20220;-71
2022/10/17 07:32:16;;;;;;;2.75;2.13;;;17.30;97.20;;;;;;1708151;29;20203;-71
2022/10/17 07:33:08;;;;;;;5.70;2.57;;;17.40;97.20;;;;;;1708136;28;20212;-71
2022/10/17 07:33:59;;;;;;;3.45;2.70;;;17.40;97.20;;;;;;1708121;29;20203;-71
2022/10/17 07:34:51;;;;;;;2.40;2.20;;;17.50;97.20;;;;;;1708034;29;20209;-71
2022/10/17 07:35:43;;;;;;;4.30;2.53;;;17.50;97.20;;;;;;1708153;29;20688;-71
2022/10/17 07:36:34;;;;;;;6.10;2.60;;;17.50;97.20;;;;;;1707796;29;20212;-72
2022/10/17 07:37:25;;;;;;;3.88;2.95;;;17.60;97.20;;;;;;1708025;29;20211;-71
2022/10/17 07:38:17;;;;;;;3.23;2.70;;;17.60;97.20;;;;;;1708193;28;20221;-71
2022/10/17 07:39:08;;;;;;;2.63;2.28;;;17.60;97.20;;;;;;1708082;29;20593;-71
2022/10/17 07:40:00;;;;;;;2.38;2.13;;;17.70;97.20;;;;;;1708160;29;20203;-71
2022/10/17 07:40:54;;;;;;;5.53;2.28;;;17.70;97.20;;;;;;1707997;29;20226;-71
2022/10/17 07:41:46;;;;;;;2.85;2.45;;;17.80;97.20;;;;;;1708035;29;20323;-71
2022/10/17 07:42:37;;;;;;;2.85;2.40;;;17.80;97.20;;;;;;1708220;29;20398;-71
2022/10/17 07:43:29;;;;;;;2.67;2.47;;;17.90;97.20;;;;;;1708030;29;20229;-71
2022/10/17 07:44:20;;;;;;;4.40;2.60;;;17.90;97.20;;;;;;1708058;29;20450;-71
2022/10/17 07:45:11;;;;;;;4.90;2.20;;;17.90;97.20;;;;;;1708027;29;20289;-71
2022/10/17 07:46:04;;;;;;;4.55;2.40;;;18.00;97.20;;;;;;1708211;29;20452;-72
2022/10/17 07:46:55;;;;;;;2.92;2.45;;;18.00;97.20;;;;;;1712825;28;20197;-72
2022/10/17 07:47:46;;;;;;;8.48;2.65;;;18.00;97.20;;;;;;1714608;28;20197;-71
2022/10/17 07:48:39;;;;;;;4.13;2.90;;;18.10;97.20;;;;;;1714803;28;20202;-72
2022/10/17 07:49:30;;;;;;;7.63;2.83;;;18.10;97.20;;;;;;1714708;28;20228;-72
2022/10/17 07:50:21;;;;;;;5.60;2.17;;;18.20;97.20;;;;;;1714678;28;20201;-71
2022/10/17 07:51:15;;;;;;;3.65;2.40;;;18.20;97.20;;;;;;1714626;28;20456;-71
2022/10/17 07:52:08;;;;;;;5.00;2.38;;;18.30;97.20;;;;;;1714808;28;20210;-72
2022/10/17 07:52:59;;;;;;;3.60;2.17;;;18.30;97.20;;;;;;1714658;28;20217;-71
2022/10/17 07:53:51;;;;;;;2.97;2.40;;;18.40;97.20;;;;;;1714826;28;20202;-71
2022/10/17 07:54:42;;;;;;;3.05;2.30;;;18.40;97.20;;;;;;1714822;28;20302;-71
2022/10/17 07:55:34;;;;;;;10.88;2.80;;;18.40;97.20;;;;;;1714751;28;20190;-72
2022/10/17 07:56:25;;;;;;;3.15;2.25;;;18.50;97.20;;;;;;1714532;28;20205;-72
2022/10/17 07:57:16;;;;;;;2.60;2.40;;;18.50;97.20;;;;;;1714644;28;20208;-71
2022/10/17 07:58:08;;;;;;;3.20;2.03;;;18.50;97.20;;;;;;1714518;28;20558;-71
2022/10/17 07:58:59;;;;;;;2.85;2.40;;;18.60;97.20;;;;;;1714667;28;20206;-71
2022/10/17 07:59:50;;;;;;;3.50;2.45;;;18.60;97.20;;;;;;1714580;28;20206;-71
2022/10/17 08:00:42;;;;;;;5.43;2.30;;;18.60;97.20;;;;;;1714202;28;20300;-71
2022/10/17 08:01:33;;;;;;;3.00;2.58;;;18.70;97.20;;;;;;1707989;29;20596;-71
2022/10/17 08:02:26;;;;;;;3.03;2.30;;;18.70;97.20;;;;;;1707950;29;20256;-71
2022/10/17 08:03:17;;;;;;;2.67;2.47;;;18.70;97.20;;;;;;1707576;28;20213;-71
2022/10/17 08:04:09;;;;;;;3.90;2.40;;;18.70;97.20;;;;;;1707681;29;20217;-73
2022/10/17 08:04:59;;;;;;;3.03;2.00;;;18.80;97.20;;;;;;1707946;29;20217;-72
2022/10/17 08:05:51;;;;;;;2.37;2.10;;;18.80;97.20;;;;;;1708050;28;20208;-72
2022/10/17 08:06:43;;;;;;;3.20;2.50;;;18.80;97.20;;;;;;1707767;29;20205;-73
2022/10/17 08:07:35;;;;;;;4.05;1.98;;;18.90;97.20;;;;;;1707858;29;20211;-73
2022/10/17 08:08:26;;;;;;;2.63;2.22;;;18.90;97.20;;;;;;1707956;29;20214;-72
2022/10/17 08:09:18;;;;;;;4.40;2.20;;;19.00;97.20;;;;;;1707867;29;20203;-72
2022/10/17 08:10:12;;;;;;;4.95;2.10;;;19.00;97.20;;;;;;1707881;29;20206;-72
2022/10/17 08:11:06;;;;;;;3.15;2.20;;;19.10;97.20;;;;;;1707984;29;20213;-72
2022/10/17 08:11:57;;;;;;;2.60;2.10;;;19.10;97.20;;;;;;1707859;29;20665;-72
2022/10/17 08:12:48;;;;;;;4.03;2.27;;;19.10;97.20;;;;;;1707870;28;20544;-72
2022/10/17 08:13:41;;;;;;;2.90;2.20;;;19.20;97.20;;;;;;1707865;29;20206;-73
2022/10/17 08:14:33;;;;;;;2.63;1.83;;;19.20;97.20;;;;;;1707798;29;20198;-72
2022/10/17 08:15:25;;;;;;;3.88;2.30;;;19.20;97.20;;;;;;1707926;29;20206;-72
2022/10/17 08:16:16;;;;;;;4.65;2.05;;;19.20;97.20;;;;;;1707638;28;20633;-73
2022/10/17 08:17:07;;;;;;;6.43;2.10;;;19.30;97.20;;;;;;1707794;29;20213;-72
2022/10/17 08:17:59;;;;;;;3.70;2.40;;;19.30;97.20;;;;;;1713415;28;20202;-73
2022/10/17 08:18:50;;;;;;;4.32;2.08;;;19.30;97.20;;;;;;1714518;28;20202;-72
2022/10/17 08:19:42;;;;;;;3.77;2.10;;;19.40;97.20;;;;;;1714635;28;20198;-72
2022/10/17 08:20:33;;;;;;;3.20;1.98;;;19.40;97.20;;;;;;1714304;28;20217;-72
2022/10/17 08:21:25;;;;;;;5.18;2.33;;;19.50;97.20;;;;;;1714522;28;20201;-72
2022/10/17 08:22:17;;;;;;;4.18;1.80;;;19.50;97.20;;;;;;1714366;28;20571;-73
2022/10/17 08:23:08;;;;;;;2.35;1.85;;;19.50;97.20;;;;;;1714549;28;20201;-72
2022/10/17 08:24:01;;;;;;;3.90;2.03;;;19.60;97.20;;;;;;1714501;28;20202;-72
2022/10/17 08:24:53;;;;;;;2.40;2.20;;;19.60;97.20;;;;;;1714392;28;20656;-72
2022/10/17 08:25:44;;;;;;;2.35;1.83;;;19.60;97.20;;;;;;1714587;28;20202;-72
2022/10/17 08:26:36;;;;;;;3.40;1.90;;;19.70;97.20;;;;;;1714220;28;20204;-73
2022/10/17 08:27:27;;;;;;;3.28;2.00;;;19.70;97.20;;;;;;1714253;28;20217;-72
2022/10/17 08:28:19;;;;;;;3.03;2.30;;;19.70;97.20;;;;;;1714357;28;20202;-73
2022/10/17 08:29:12;;;;;;;2.90;2.20;;;19.70;97.20;;;;;;1714422;28;20209;-72
2022/10/17 08:30:04;;;;;;;2.22;1.83;;;19.80;97.20;;;;;;1714441;28;20206;-73
2022/10/17 08:31:02;;;;;;;1.92;1.77;;;19.80;97.20;;;;;;1714402;28;20234;-73
2022/10/17 08:31:53;;;;;;;3.78;2.30;;;19.80;97.20;;;;;;1714412;28;20202;-73
2022/10/17 08:32:44;;;;;;;4.70;2.10;;;19.80;97.20;;;;;;1714353;28;20206;-72
2022/10/17 08:33:36;;;;;;;4.00;2.03;;;19.90;97.20;;;;;;1714457;28;20205;-73
2022/10/17 08:34:27;;;;;;;3.67;2.45;;;19.90;97.20;;;;;;1708517;28;20204;-72
2022/10/17 08:35:20;;;;;;;2.10;1.90;;;19.90;97.20;;;;;;1707726;29;20202;-73
2022/10/17 08:36:12;;;;;;;2.40;2.20;;;20.00;97.20;;;;;;1707408;29;20206;-73
2022/10/17 08:37:04;;;;;;;4.05;2.45;;;20.00;97.20;;;;;;1707651;29;20234;-73
2022/10/17 08:37:58;;;;;;;3.60;2.25;;;20.10;97.20;;;;;;1707746;29;20574;-73
2022/10/17 08:38:49;;;;;;;4.07;1.90;;;20.10;97.20;;;;;;1707732;29;20576;-72
2022/10/17 08:39:40;;;;;;;4.10;2.17;;;20.10;97.20;;;;;;1709529;28;20206;-72
2022/10/17 08:40:34;;;;;;;5.37;2.23;;;20.20;97.20;;;;;;1714265;28;20205;-72
2022/10/17 08:41:42;;;;;;;2.88;1.75;;;20.20;97.20;;;;;;1714342;28;20461;-72
2022/10/17 08:42:48;;;;;;;2.45;2.08;;;20.20;97.20;;;;;;1714258;28;20233;-72
2022/10/17 08:43:57;;;;;;;8.85;2.28;;;20.30;97.20;;;;;;1714433;28;20209;-72
2022/10/17 08:44:56;;;;;;;4.57;1.80;;;20.20;97.20;;;;;;1714349;28;20209;-72
2022/10/17 08:45:52;;;;;;;2.47;1.92;;;20.20;97.20;;;;;;1714361;28;20198;-72
2022/10/17 08:46:47;;;;;;;2.88;2.08;;;20.30;97.20;;;;;;1713997;28;20201;-72
2022/10/17 08:47:41;;;;;;;2.45;1.90;;;20.30;97.20;;;;;;1714285;28;20565;-72
2022/10/17 08:48:38;;;;;;;4.65;2.20;;;20.30;97.20;;;;;;1714301;28;20563;-72
2022/10/17 08:49:47;;;;;;;6.00;2.05;;;20.30;97.20;;;;;;1714344;28;20224;-73
2022/10/17 08:50:42;;;;;;;7.68;2.13;;;20.40;97.20;;;;;;1714301;28;20266;-72
2022/10/17 08:51:41;;;;;;;4.15;2.03;;;20.50;97.20;;;;;;1714320;28;20660;-72
2022/10/17 08:52:38;;;;;;;3.63;2.10;;;20.50;97.20;;;;;;1714448;28;20674;-72
2022/10/17 08:53:36;;;;;;;2.55;2.03;;;20.60;97.20;;;;;;1714358;28;20672;-72
2022/10/17 08:54:36;;;;;;;6.25;2.20;;;20.70;97.20;;;;;;1709413;28;20199;-72
2022/10/17 08:55:37;;;;;;;2.65;2.15;;;20.70;97.20;;;;;;1707693;29;20208;-72
2022/10/17 08:56:33;;;;;;;3.47;2.13;;;20.80;97.20;;;;;;1707462;28;20265;-72
2022/10/17 08:57:27;;;;;;;2.78;2.58;;;20.80;97.20;;;;;;1707554;29;20206;-72
2022/10/17 08:58:20;;;;;;;3.58;2.45;;;20.90;97.20;;;;;;1707739;28;20206;-72
2022/10/17 08:59:13;;;;;;;3.30;2.25;;;21.00;97.20;;;;;;1707651;29;20266;-72
2022/10/17 09:00:13;;;;;;;2.95;1.83;;;21.00;97.20;;;;;;1707801;29;20727;-72
2022/10/17 09:01:12;;;;;;;4.20;2.10;;;21.10;97.20;;;;;;1707598;28;20216;-72
2022/10/17 09:02:20;;;;;;;2.40;2.20;;;21.20;97.20;;;;;;1707696;29;20334;-72
2022/10/17 09:03:28;;;;;;;2.38;2.15;;;21.20;97.20;;;;;;1707713;28;20595;-72
2022/10/17 09:04:45;;;;;;;5.68;2.53;;;21.30;97.20;;;;;;1707662;29;20264;-72
2022/10/17 09:05:46;;;;;;;3.83;2.20;;;21.40;97.20;;;;;;1707541;29;20211;-72
2022/10/17 09:06:39;;;;;;;2.83;2.28;;;21.50;97.20;;;;;;1707458;28;20199;-73
2022/10/17 09:07:36;;;;;;;2.20;2.00;;;21.50;97.20;;;;;;1707566;28;20282;-73
2022/10/17 09:08:36;;;;;;;4.28;2.20;;;21.50;97.20;;;;;;1707711;29;20664;-73
2022/10/17 09:09:37;;;;;;;3.47;1.85;;;21.50;97.20;;;;;;1707601;29;20215;-73
2022/10/17 09:10:39;;;;;;;3.35;2.25;;;21.50;97.20;;;;;;1707597;29;20217;-73
2022/10/17 09:11:56;;;;;;;3.83;2.40;;;21.50;97.20;;;;;;1708516;28;20203;-73
2022/10/17 09:13:06;;;;;;;2.65;2.08;;;21.50;97.20;;;;;;1707647;29;20206;-73
2022/10/17 09:14:07;;;;;;;2.45;2.22;;;21.50;97.20;;;;;;1707605;29;20210;-73
2022/10/17 09:15:35;;;;;;;4.25;2.70;;;21.50;97.20;;;;;;1707434;28;20281;-72
2022/10/17 09:16:51;;;;;;;3.55;2.30;;;21.60;97.20;;;;;;1707309;28;20210;-73
2022/10/17 09:17:51;;;;;;;5.88;2.38;;;21.70;97.20;;;;;;1707488;29;20213;-73
2022/10/17 09:18:47;;;;;;;2.63;2.33;;;21.70;97.20;;;;;;1707552;28;20276;-73
2022/10/17 09:19:44;;;;;;;2.47;2.10;;;21.70;97.20;;;;;;1707547;28;20202;-73
2022/10/17 09:20:39;;;;;;;7.13;2.13;;;21.80;97.20;;;;;;1707534;28;20222;-72
2022/10/17 09:21:39;;;;;;;2.88;2.00;;;21.90;97.20;;;;;;1707555;29;20206;-73
2022/10/17 09:22:38;;;;;;;2.30;2.10;;;21.90;97.20;;;;;;1707462;28;20226;-73
2022/10/17 09:23:35;;;;;;;3.75;2.22;;;22.00;97.20;;;;;;1707492;29;20214;-72
2022/10/17 09:24:39;;;;;;;2.65;1.92;;;22.00;97.20;;;;;;1707530;28;20237;-73
2022/10/17 09:25:40;;;;;;;2.42;2.20;;;22.10;97.20;;;;;;1707477;29;20203;-73
2022/10/17 09:26:31;;;;;;;3.10;1.95;;;22.20;97.20;;;;;;1707157;28;20206;-72
2022/10/17 09:27:25;;;;;;;3.10;2.53;;;22.30;97.20;;;;;;1707435;28;20281;-73
2022/10/17 09:28:21;;;;;;;3.00;1.85;;;22.40;97.20;;;;;;1713390;28;20198;-72
2022/10/17 09:29:19;;;;;;;3.67;2.10;;;22.50;97.20;;;;;;1714036;28;20213;-73
2022/10/17 09:30:28;;;;;;;4.53;1.83;;;22.60;97.20;;;;;;1714213;28;20209;-72
2022/10/17 09:31:21;;;;;;;2.58;2.38;;;22.60;97.20;;;;;;1714228;28;20311;-72
2022/10/17 09:32:17;;;;;;;2.33;2.13;;;22.70;97.20;;;;;;1714153;28;20235;-73
2022/10/17 09:33:12;;;;;;;2.45;2.17;;;22.70;97.20;;;;;;1713993;28;20230;-72
2022/10/17 09:34:04;;;;;;;3.35;2.67;;;22.70;97.20;;;;;;1714171;28;20259;-73
2022/10/17 09:34:55;;;;;;;5.10;1.90;;;22.70;97.20;;;;;;1714159;28;20202;-72
2022/10/17 09:35:48;;;;;;;4.40;2.20;;;22.80;97.20;;;;;;1714124;28;20198;-72
2022/10/17 09:36:41;;;;;;;2.42;2.22;;;22.80;97.20;;;;;;1713734;28;20287;-73